Time;durP1;ratioP1;P1;durP2;ratioP2;P2;SDS_P1;SDS_P2;PMS_P1;PMS_P2;Temp;Humidity;BMP_temperature;BMP_pressure;BME280_temperature;BME280_humidity;BME280_pressure;Samples;Min_cycle;Max_cycle;Signal;HPM_P1;HPM_P2
2022/03/30 00:00:45;;;;;;;22.73;15.73;;;;;;;;;;5047085;28;20384;-63
2022/03/30 00:03:11;;;;;;;22.58;15.38;;;;;;;;;;5046247;28;20025;-64
2022/03/30 00:05:38;;;;;;;26.15;15.85;;;;;;;;;;5046028;28;20025;-63
2022/03/30 00:08:05;;;;;;;28.15;16.90;;;;;;;;;;5046669;28;20068;-63
2022/03/30 00:10:31;;;;;;;24.67;15.23;;;;;;;;;;5048805;28;20037;-63
2022/03/30 00:12:57;;;;;;;23.10;15.57;;;;;;;;;;5051074;28;20025;-64
2022/03/30 00:15:24;;;;;;;24.85;15.07;;;;;;;;;;5047692;28;20044;-63
2022/03/30 00:17:50;;;;;;;23.95;14.88;;;;;;;;;;5047379;28;20036;-63
2022/03/30 00:20:16;;;;;;;21.42;14.63;;;;;;;;;;5047284;28;20435;-63
2022/03/30 00:22:42;;;;;;;23.77;15.70;;;;;;;;;;5047241;28;20497;-63
2022/03/30 00:25:09;;;;;;;22.10;14.75;;;;;;;;;;5052387;28;20053;-63
2022/03/30 00:27:35;;;;;;;23.08;13.73;;;;;;;;;;5043997;28;20025;-65
2022/03/30 00:30:01;;;;;;;23.58;14.55;;;;;;;;;;5044867;28;20075;-63
2022/03/30 00:32:27;;;;;;;19.58;14.38;;;;;;;;;;5045241;28;20053;-63
2022/03/30 00:34:53;;;;;;;26.67;14.95;;;;;;;;;;5045545;28;20105;-63
2022/03/30 00:37:19;;;;;;;23.38;14.48;;;;;;;;;;5052363;28;20365;-63
2022/03/30 00:39:45;;;;;;;21.70;14.93;;;;;;;;;;5046664;28;20032;-63
2022/03/30 00:42:19;;;;;;;21.00;14.85;;;;;;;;;;5045099;28;20035;-64
2022/03/30 00:44:46;;;;;;;24.25;15.45;;;;;;;;;;5046495;28;20025;-63
2022/03/30 00:47:15;;;;;;;22.63;15.05;;;;;;;;;;5045361;28;20108;-64
2022/03/30 00:49:42;;;;;;;21.85;14.85;;;;;;;;;;5046865;28;20025;-65
2022/03/30 00:52:08;;;;;;;21.48;14.15;;;;;;;;;;5051641;28;20025;-63
2022/03/30 00:54:34;;;;;;;22.02;14.75;;;;;;;;;;5044502;28;20033;-63
2022/03/30 00:57:00;;;;;;;22.70;15.00;;;;;;;;;;5040034;28;20029;-63
2022/03/30 00:59:27;;;;;;;24.92;15.27;;;;;;;;;;5028956;28;20507;-63
2022/03/30 01:01:53;;;;;;;23.13;15.45;;;;;;;;;;5044805;28;20047;-64
2022/03/30 01:04:19;;;;;;;24.67;14.52;;;;;;;;;;5051670;28;20025;-64
2022/03/30 01:06:45;;;;;;;23.77;14.52;;;;;;;;;;5045636;28;20036;-63
2022/03/30 01:09:11;;;;;;;25.15;15.07;;;;;;;;;;5040601;28;20029;-63
2022/03/30 01:11:38;;;;;;;21.42;14.65;;;;;;;;;;5035673;28;20087;-64
2022/03/30 01:14:05;;;;;;;24.40;14.57;;;;;;;;;;5044052;28;20029;-63
2022/03/30 01:16:31;;;;;;;21.75;15.55;;;;;;;;;;5048773;28;20028;-64
2022/03/30 01:19:05;;;;;;;22.25;14.90;;;;;;;;;;5049840;28;20603;-64
2022/03/30 01:21:31;;;;;;;23.40;15.20;;;;;;;;;;5048386;28;20053;-64
2022/03/30 01:23:57;;;;;;;22.40;14.70;;;;;;;;;;5038201;28;20488;-64
2022/03/30 01:26:25;;;;;;;22.38;14.27;;;;;;;;;;5044393;28;20021;-64
2022/03/30 01:28:51;;;;;;;23.25;14.63;;;;;;;;;;5044219;28;20072;-64
2022/03/30 01:34:03;;;;;;;23.00;14.57;;;;;;;;;;5048532;28;20395;-64
2022/03/30 01:36:28;;;;;;;20.80;14.88;;;;;;;;;;5043512;28;20017;-64
2022/03/30 01:38:54;;;;;;;21.73;14.52;;;;;;;;;;5043624;28;20056;-63
2022/03/30 01:41:20;;;;;;;24.77;15.07;;;;;;;;;;5042755;28;20017;-64
2022/03/30 01:43:46;;;;;;;24.65;14.50;;;;;;;;;;5044316;28;20489;-64
2022/03/30 01:46:13;;;;;;;23.33;14.10;;;;;;;;;;5050412;28;20107;-64
2022/03/30 01:48:38;;;;;;;23.23;13.63;;;;;;;;;;5043690;28;20037;-65
2022/03/30 01:51:04;;;;;;;20.10;13.80;;;;;;;;;;5043879;28;20350;-64
2022/03/30 01:53:30;;;;;;;20.02;12.88;;;;;;;;;;5043957;28;20024;-65
2022/03/30 01:55:56;;;;;;;25.52;14.00;;;;;;;;;;5043100;28;20386;-64
2022/03/30 01:58:23;;;;;;;24.73;12.57;;;;;;;;;;5041287;28;20033;-65
2022/03/30 02:00:49;;;;;;;21.95;12.63;;;;;;;;;;5047327;28;20492;-65
2022/03/30 02:03:15;;;;;;;17.38;12.15;;;;;;;;;;5045050;28;20123;-65
2022/03/30 02:05:41;;;;;;;23.55;13.82;;;;;;;;;;5043112;28;20368;-65
2022/03/30 02:08:07;;;;;;;21.70;13.68;;;;;;;;;;5043751;28;20071;-64
2022/03/30 02:10:33;;;;;;;22.50;14.80;;;;;;;;;;5047601;28;20104;-64
2022/03/30 02:12:59;;;;;;;20.75;14.27;;;;;;;;;;5049178;28;20033;-64
2022/03/30 02:15:26;;;;;;;21.70;15.02;;;;;;;;;;5041263;28;20021;-64
2022/03/30 02:17:52;;;;;;;22.85;14.77;;;;;;;;;;5044935;28;20044;-64
2022/03/30 02:20:18;;;;;;;20.08;14.40;;;;;;;;;;5043448;28;20028;-64
2022/03/30 02:22:44;;;;;;;22.45;15.13;;;;;;;;;;5042633;28;20065;-64
2022/03/30 02:25:10;;;;;;;23.38;14.65;;;;;;;;;;5050089;28;20493;-64
2022/03/30 02:27:37;;;;;;;19.27;13.27;;;;;;;;;;5042543;28;20025;-65
2022/03/30 02:30:04;;;;;;;19.42;13.70;;;;;;;;;;5043091;28;20021;-65
2022/03/30 02:32:30;;;;;;;20.40;13.95;;;;;;;;;;5043050;28;20040;-64
2022/03/30 02:34:56;;;;;;;23.08;14.63;;;;;;;;;;5042246;28;20040;-64
2022/03/30 02:37:22;;;;;;;18.98;12.90;;;;;;;;;;5049335;28;20029;-64
2022/03/30 02:39:48;;;;;;;19.17;13.23;;;;;;;;;;5046254;28;20510;-64
2022/03/30 02:42:15;;;;;;;18.98;13.23;;;;;;;;;;5043090;28;20031;-64
2022/03/30 02:44:41;;;;;;;18.48;12.90;;;;;;;;;;5042202;28;20032;-64
2022/03/30 02:47:08;;;;;;;21.15;12.43;;;;;;;;;;5042993;28;20030;-64
2022/03/30 02:49:34;;;;;;;18.58;12.48;;;;;;;;;;5046801;28;20021;-64
2022/03/30 02:52:00;;;;;;;18.63;12.85;;;;;;;;;;5046956;28;20392;-64
2022/03/30 02:54:26;;;;;;;20.00;12.60;;;;;;;;;;5042857;28;20534;-64
2022/03/30 02:56:52;;;;;;;20.35;13.77;;;;;;;;;;5044364;28;20029;-64
2022/03/30 02:59:18;;;;;;;19.95;14.45;;;;;;;;;;5034171;28;20120;-65
2022/03/30 03:01:44;;;;;;;21.08;14.55;;;;;;;;;;5044006;28;20037;-65
2022/03/30 03:04:10;;;;;;;20.50;14.18;;;;;;;;;;5049785;28;20031;-64
2022/03/30 03:06:36;;;;;;;20.77;14.90;;;;;;;;;;5042156;28;20031;-64
2022/03/30 03:09:03;;;;;;;19.63;14.25;;;;;;;;;;5042580;28;20387;-64
2022/03/30 03:11:29;;;;;;;19.58;13.82;;;;;;;;;;5042999;28;20048;-65
2022/03/30 03:13:55;;;;;;;21.08;14.18;;;;;;;;;;5041215;28;20468;-65
2022/03/30 03:16:21;;;;;;;19.60;13.27;;;;;;;;;;5049305;28;20025;-65
2022/03/30 03:18:47;;;;;;;18.58;12.52;;;;;;;;;;5044534;28;20110;-65
2022/03/30 03:21:13;;;;;;;21.27;14.13;;;;;;;;;;5042396;28;20040;-65
2022/03/30 03:23:41;;;;;;;26.40;14.82;;;;;;;;;;5042485;28;20079;-65
2022/03/30 03:26:07;;;;;;;22.50;14.33;;;;;;;;;;5042920;28;20092;-65
2022/03/30 03:28:33;;;;;;;17.88;14.48;;;;;;;;;;5045863;28;20017;-65
2022/03/30 03:30:59;;;;;;;21.30;13.77;;;;;;;;;;5046673;28;20106;-67
2022/03/30 03:33:25;;;;;;;20.23;14.73;;;;;;;;;;5045118;28;20031;-67
2022/03/30 03:35:51;;;;;;;22.77;15.20;;;;;;;;;;5042228;28;20091;-68
2022/03/30 03:38:18;;;;;;;21.52;14.80;;;;;;;;;;5042309;28;20068;-67
2022/03/30 03:40:44;;;;;;;23.27;13.73;;;;;;;;;;5042795;28;20018;-67
2022/03/30 03:43:10;;;;;;;21.83;14.35;;;;;;;;;;5031610;28;20030;-67
2022/03/30 03:45:36;;;;;;;21.42;13.98;;;;;;;;;;5028531;28;20609;-67
2022/03/30 03:48:02;;;;;;;19.65;13.15;;;;;;;;;;5030358;28;20025;-67
2022/03/30 03:50:28;;;;;;;22.48;14.00;;;;;;;;;;5029978;28;20151;-67
2022/03/30 03:52:56;;;;;;;20.98;13.63;;;;;;;;;;5028405;28;20033;-67
2022/03/30 03:55:22;;;;;;;20.30;13.32;;;;;;;;;;5030474;28;20052;-67
2022/03/30 03:57:50;;;;;;;22.15;13.50;;;;;;;;;;5031234;28;20465;-66
2022/03/30 04:00:16;;;;;;;21.40;13.23;;;;;;;;;;5027587;28;20477;-67
2022/03/30 04:02:42;;;;;;;24.83;14.07;;;;;;;;;;5030229;28;20025;-70
2022/03/30 04:05:09;;;;;;;19.00;13.43;;;;;;;;;;5031903;28;20025;-70
2022/03/30 04:07:36;;;;;;;21.70;13.90;;;;;;;;;;5032901;28;20021;-70
2022/03/30 04:10:02;;;;;;;23.42;14.02;;;;;;;;;;5049063;28;20025;-70
2022/03/30 04:12:28;;;;;;;20.83;14.65;;;;;;;;;;5033856;28;20539;-67
2022/03/30 04:14:54;;;;;;;18.33;12.93;;;;;;;;;;5033404;28;20018;-66
2022/03/30 04:17:20;;;;;;;20.85;12.95;;;;;;;;;;5035286;28;20040;-65
2022/03/30 04:19:46;;;;;;;20.70;13.82;;;;;;;;;;5045052;28;20493;-67
2022/03/30 04:22:12;;;;;;;19.70;13.70;;;;;;;;;;5053013;28;20036;-67
2022/03/30 04:24:38;;;;;;;21.60;13.35;;;;;;;;;;5045002;28;20033;-65
2022/03/30 04:27:04;;;;;;;21.83;14.15;;;;;;;;;;5045661;28;20377;-66
2022/03/30 04:29:30;;;;;;;19.48;14.23;;;;;;;;;;5044494;28;20029;-66
2022/03/30 04:31:56;;;;;;;20.27;15.25;;;;;;;;;;5045020;28;20050;-66
2022/03/30 04:34:22;;;;;;;20.35;14.43;;;;;;;;;;5049885;28;20037;-66
2022/03/30 04:36:48;;;;;;;20.90;14.38;;;;;;;;;;5047067;28;20066;-66
2022/03/30 04:39:14;;;;;;;23.00;15.77;;;;;;;;;;5044877;28;20069;-67
2022/03/30 04:41:40;;;;;;;21.17;14.02;;;;;;;;;;5045162;28;20029;-66
2022/03/30 04:44:06;;;;;;;21.27;13.70;;;;;;;;;;5045644;28;20033;-66
2022/03/30 04:46:32;;;;;;;18.95;13.55;;;;;;;;;;5047728;28;20025;-66
2022/03/30 04:49:01;;;;;;;22.45;14.70;;;;;;;;;;5047840;28;20072;-66
2022/03/30 04:51:29;;;;;;;27.33;14.40;;;;;;;;;;5045086;28;20098;-66
2022/03/30 04:53:55;;;;;;;21.90;14.70;;;;;;;;;;5046176;28;20558;-66
2022/03/30 04:56:21;;;;;;;23.33;15.00;;;;;;;;;;5044568;28;20270;-66
2022/03/30 04:58:47;;;;;;;21.67;15.07;;;;;;;;;;5036288;28;20643;-73
2022/03/30 05:01:13;;;;;;;25.02;14.43;;;;;;;;;;5052817;28;20048;-74
2022/03/30 05:03:39;;;;;;;21.15;14.05;;;;;;;;;;5045668;28;20067;-73
2022/03/30 05:06:05;;;;;;;19.73;14.07;;;;;;;;;;5044070;28;20476;-74
2022/03/30 05:08:31;;;;;;;21.80;14.73;;;;;;;;;;5044678;28;20021;-73
2022/03/30 05:10:57;;;;;;;19.23;13.80;;;;;;;;;;5034570;28;20026;-73
2022/03/30 05:13:23;;;;;;;19.85;14.18;;;;;;;;;;5050710;28;20037;-73
2022/03/30 05:15:49;;;;;;;20.60;14.18;;;;;;;;;;5047231;28;20025;-72
2022/03/30 05:18:15;;;;;;;23.27;14.43;;;;;;;;;;5044309;28;20082;-73
2022/03/30 05:20:45;;;;;;;20.02;14.20;;;;;;;;;;5045662;28;20104;-73
2022/03/30 05:23:11;;;;;;;20.38;13.90;;;;;;;;;;5044117;28;20426;-73
2022/03/30 05:25:37;;;;;;;19.83;14.13;;;;;;;;;;5046919;28;20045;-73
2022/03/30 05:28:04;;;;;;;19.58;13.98;;;;;;;;;;5050632;28;20489;-74
2022/03/30 05:30:30;;;;;;;20.77;14.05;;;;;;;;;;5041755;28;20469;-73
2022/03/30 05:32:56;;;;;;;19.42;14.43;;;;;;;;;;5043745;28;20025;-73
2022/03/30 05:35:22;;;;;;;22.42;14.77;;;;;;;;;;5045747;28;20103;-71
2022/03/30 05:37:48;;;;;;;17.50;14.10;;;;;;;;;;5043729;28;20079;-70
2022/03/30 05:40:16;;;;;;;19.65;14.32;;;;;;;;;;5050923;28;20559;-70
2022/03/30 05:42:42;;;;;;;24.05;13.77;;;;;;;;;;5044396;28;20021;-70
2022/03/30 05:45:08;;;;;;;20.88;14.48;;;;;;;;;;5043736;28;20036;-70
2022/03/30 05:47:35;;;;;;;21.63;14.27;;;;;;;;;;5043596;28;20067;-71
2022/03/30 05:50:01;;;;;;;25.00;16.00;;;;;;;;;;5044158;28;20046;-65
2022/03/30 05:52:27;;;;;;;20.65;14.60;;;;;;;;;;5048750;28;20493;-65
2022/03/30 05:54:53;;;;;;;18.25;14.40;;;;;;;;;;5043343;28;20091;-65
2022/03/30 05:57:21;;;;;;;21.08;13.93;;;;;;;;;;5043547;28;20490;-65
2022/03/30 05:59:48;;;;;;;22.20;13.43;;;;;;;;;;5036161;28;20021;-64
2022/03/30 06:02:15;;;;;;;20.08;13.68;;;;;;;;;;5044796;28;20024;-64
2022/03/30 06:04:41;;;;;;;20.45;14.07;;;;;;;;;;5044401;28;20417;-70
2022/03/30 06:07:08;;;;;;;19.40;13.70;;;;;;;;;;5051857;28;20025;-72
2022/03/30 06:09:34;;;;;;;17.95;12.63;;;;;;;;;;5042516;28;20208;-71
2022/03/30 06:12:06;;;;;;;19.63;13.05;;;;;;;;;;5045288;28;20025;-72
2022/03/30 06:14:32;;;;;;;21.08;13.38;;;;;;;;;;5045117;28;20116;-71
2022/03/30 06:16:58;;;;;;;22.17;12.77;;;;;;;;;;5042511;28;20079;-72
2022/03/30 06:19:24;;;;;;;22.73;14.15;;;;;;;;;;5049072;28;20432;-72
2022/03/30 06:21:51;;;;;;;23.27;14.27;;;;;;;;;;5046519;28;20025;-71
2022/03/30 06:24:17;;;;;;;20.42;14.15;;;;;;;;;;5043142;28;20023;-72
2022/03/30 06:26:43;;;;;;;20.27;13.82;;;;;;;;;;5043926;28;20028;-72
2022/03/30 06:29:10;;;;;;;22.67;14.13;;;;;;;;;;5044601;28;20017;-72
2022/03/30 06:31:36;;;;;;;22.05;13.68;;;;;;;;;;5046826;28;20124;-71
2022/03/30 06:34:03;;;;;;;20.60;13.38;;;;;;;;;;5047880;28;20094;-71
2022/03/30 06:36:29;;;;;;;20.48;14.93;;;;;;;;;;5043288;28;20025;-71
2022/03/30 06:38:56;;;;;;;20.60;13.98;;;;;;;;;;5042456;28;20036;-71
2022/03/30 06:41:24;;;;;;;19.98;14.20;;;;;;;;;;5043279;28;20021;-72
2022/03/30 06:43:50;;;;;;;22.70;14.35;;;;;;;;;;5044072;28;20029;-71
2022/03/30 06:46:16;;;;;;;24.02;15.10;;;;;;;;;;5049382;28;20074;-72
2022/03/30 06:48:45;;;;;;;20.33;14.60;;;;;;;;;;5043420;28;20036;-71
2022/03/30 06:51:11;;;;;;;24.77;14.02;;;;;;;;;;5044497;28;20361;-71
2022/03/30 06:53:37;;;;;;;22.85;15.38;;;;;;;;;;5042766;28;20063;-71
2022/03/30 06:56:03;;;;;;;23.88;14.88;;;;;;;;;;5043158;28;20436;-71
2022/03/30 06:58:29;;;;;;;29.50;14.25;;;;;;;;;;5039535;28;20042;-72
2022/03/30 07:00:56;;;;;;;22.73;14.60;;;;;;;;;;5047755;28;20080;-71
2022/03/30 07:03:26;;;;;;;20.45;15.00;;;;;;;;;;5040052;28;20530;-71
2022/03/30 07:05:52;;;;;;;21.05;15.07;;;;;;;;;;5042121;28;20047;-72
2022/03/30 07:11:02;;;;;;;23.98;14.82;;;;;;;;;;5015324;28;20045;-72
2022/03/30 07:13:28;;;;;;;22.25;14.52;;;;;;;;;;5047148;28;20443;-72
2022/03/30 07:15:54;;;;;;;24.65;15.07;;;;;;;;;;5046211;28;20492;-72
2022/03/30 07:18:20;;;;;;;23.58;15.10;;;;;;;;;;5039393;28;20037;-72
2022/03/30 07:20:46;;;;;;;22.60;15.50;;;;;;;;;;5042195;28;20086;-72
2022/03/30 07:23:14;;;;;;;21.92;14.55;;;;;;;;;;5042374;28;20031;-72
2022/03/30 07:25:40;;;;;;;21.65;15.10;;;;;;;;;;5043246;28;20033;-73
2022/03/30 07:28:07;;;;;;;22.35;15.30;;;;;;;;;;5047324;28;20468;-72
2022/03/30 07:30:33;;;;;;;23.75;15.77;;;;;;;;;;5038931;28;20417;-73
2022/03/30 07:32:59;;;;;;;20.63;15.07;;;;;;;;;;5041581;28;20052;-72
2022/03/30 07:35:32;;;;;;;21.40;15.18;;;;;;;;;;5041903;28;20028;-73
2022/03/30 07:37:59;;;;;;;21.10;15.52;;;;;;;;;;5043057;28;20409;-74
2022/03/30 07:40:25;;;;;;;21.25;15.43;;;;;;;;;;5050800;28;20017;-73
2022/03/30 07:42:51;;;;;;;24.05;16.08;;;;;;;;;;5048103;28;20484;-75
2022/03/30 07:45:18;;;;;;;23.50;15.43;;;;;;;;;;5046550;28;20036;-75
2022/03/30 07:47:44;;;;;;;23.88;16.40;;;;;;;;;;5046015;28;20021;-74
2022/03/30 07:50:10;;;;;;;20.52;15.45;;;;;;;;;;5047068;28;20036;-74
2022/03/30 07:52:36;;;;;;;23.35;16.20;;;;;;;;;;5049647;28;20052;-74
2022/03/30 07:55:03;;;;;;;21.55;16.10;;;;;;;;;;5050604;28;20114;-75
2022/03/30 07:57:29;;;;;;;25.15;16.25;;;;;;;;;;5044400;28;20033;-73
2022/03/30 07:59:56;;;;;;;25.80;15.73;;;;;;;;;;5040001;28;20029;-75
2022/03/30 08:02:22;;;;;;;22.55;16.40;;;;;;;;;;5045947;28;20021;-74
2022/03/30 08:04:49;;;;;;;24.45;16.10;;;;;;;;;;5045479;28;20025;-74
2022/03/30 08:07:15;;;;;;;23.13;15.10;;;;;;;;;;5052771;28;20657;-74
2022/03/30 08:09:42;;;;;;;21.55;16.15;;;;;;;;;;5047605;28;20495;-73
2022/03/30 08:12:08;;;;;;;23.20;16.35;;;;;;;;;;5045362;28;20112;-74
2022/03/30 08:14:34;;;;;;;24.08;16.25;;;;;;;;;;5045494;28;20300;-74
2022/03/30 08:17:00;;;;;;;21.25;15.68;;;;;;;;;;5046183;28;20062;-73
2022/03/30 08:19:26;;;;;;;26.13;16.25;;;;;;;;;;5051335;28;20045;-74
2022/03/30 08:24:39;;;;;;;26.15;17.60;;;;;;;;;;5045734;28;20048;-73
2022/03/30 08:27:05;;;;;;;;;;;;;;;;;;5047823;28;20025;-74
2022/03/30 08:29:31;;;;;;;20.90;15.55;;;;;;;;;;5045269;28;20222;-73
2022/03/30 08:31:57;;;;;;;23.40;15.73;;;;;;;;;;5045420;28;20486;-75
2022/03/30 08:34:25;;;;;;;22.92;16.95;;;;;;;;;;5051577;28;20033;-73
2022/03/30 08:36:51;;;;;;;20.63;16.48;;;;;;;;;;5051963;28;20052;-73
2022/03/30 08:39:18;;;;;;;23.83;15.63;;;;;;;;;;5041374;28;20040;-73
2022/03/30 08:41:47;;;;;;;21.10;15.38;;;;;;;;;;5044885;28;20028;-73
2022/03/30 08:44:17;;;;;;;24.67;15.30;;;;;;;;;;5045293;28;20071;-73
2022/03/30 08:46:47;;;;;;;22.15;15.18;;;;;;;;;;5046567;28;20053;-73
2022/03/30 08:49:13;;;;;;;17.67;13.10;;;;;;;;;;5052906;28;20025;-74
2022/03/30 08:51:40;;;;;;;23.60;14.43;;;;;;;;;;5048515;28;20029;-73
2022/03/30 08:54:09;;;;;;;22.15;15.93;;;;;;;;;;5045236;28;20021;-75
2022/03/30 08:56:37;;;;;;;20.48;15.38;;;;;;;;;;5044092;28;20112;-73
2022/03/30 08:59:04;;;;;;;19.33;14.60;;;;;;;;;;5037406;28;20045;-74
2022/03/30 09:01:35;;;;;;;21.23;14.10;;;;;;;;;;5048343;28;20017;-73
2022/03/30 09:04:02;;;;;;;17.15;13.95;;;;;;;;;;5049485;28;20033;-72
2022/03/30 09:06:29;;;;;;;20.05;14.68;;;;;;;;;;5044304;28;20095;-73
2022/03/30 09:08:58;;;;;;;21.53;15.03;;;;;;;;;;5045731;28;20021;-73
2022/03/30 09:11:30;;;;;;;18.83;13.32;;;;;;;;;;5039489;28;20274;-73
2022/03/30 09:14:05;;;;;;;18.40;12.50;;;;;;;;;;5044139;28;20014;-72
2022/03/30 09:16:37;;;;;;;20.70;12.98;;;;;;;;;;5047999;28;20039;-73
2022/03/30 09:19:04;;;;;;;18.45;13.10;;;;;;;;;;5049850;28;20063;-73
2022/03/30 09:21:47;;;;;;;18.63;12.15;;;;;;;;;;5044647;28;20052;-73
2022/03/30 09:24:14;;;;;;;17.95;13.38;;;;;;;;;;5044020;28;20033;-75
2022/03/30 09:26:41;;;;;;;19.25;12.88;;;;;;;;;;5045531;28;20032;-73
2022/03/30 09:29:07;;;;;;;20.42;12.90;;;;;;;;;;5044457;28;20116;-73
2022/03/30 09:31:35;;;;;;;18.52;12.35;;;;;;;;;;5048066;28;20045;-73
2022/03/30 09:34:02;;;;;;;17.63;11.02;;;;;;;;;;5047289;28;20120;-73
2022/03/30 09:36:29;;;;;;;21.67;12.32;;;;;;;;;;5043206;28;20214;-73
2022/03/30 09:38:55;;;;;;;13.55;10.70;;;;;;;;;;5043670;28;20563;-72
2022/03/30 09:41:21;;;;;;;16.75;11.50;;;;;;;;;;5045035;28;20040;-72
2022/03/30 09:43:47;;;;;;;17.98;11.27;;;;;;;;;;5044046;28;20029;-73
2022/03/30 09:46:15;;;;;;;16.17;11.27;;;;;;;;;;5049324;28;20067;-73
2022/03/30 09:48:49;;;;;;;17.20;11.45;;;;;;;;;;5042352;28;20500;-73
2022/03/30 09:51:15;;;;;;;17.77;11.02;;;;;;;;;;5042505;28;20112;-73
2022/03/30 09:53:42;;;;;;;19.88;11.93;;;;;;;;;;5042133;28;20017;-73
2022/03/30 09:56:13;;;;;;;15.27;10.90;;;;;;;;;;5042008;28;20039;-73
2022/03/30 09:58:40;;;;;;;17.65;11.15;;;;;;;;;;5035983;28;20515;-72
2022/03/30 10:01:06;;;;;;;21.58;12.02;;;;;;;;;;5044871;28;20068;-73
2022/03/30 10:03:52;;;;;;;18.98;12.27;;;;;;;;;;5032661;28;20429;-72
2022/03/30 10:06:29;;;;;;;17.48;11.98;;;;;;;;;;5032276;28;20037;-72
2022/03/30 10:08:56;;;;;;;18.35;11.32;;;;;;;;;;5038650;28;20104;-72
2022/03/30 10:11:23;;;;;;;18.17;11.75;;;;;;;;;;5041611;28;20078;-72
2022/03/30 10:13:54;;;;;;;18.15;11.50;;;;;;;;;;5042797;28;20029;-73
2022/03/30 10:16:21;;;;;;;16.20;11.38;;;;;;;;;;5032882;28;20647;-74
2022/03/30 10:18:48;;;;;;;19.48;11.55;;;;;;;;;;5030076;28;20059;-72
2022/03/30 10:21:33;;;;;;;14.02;10.40;;;;;;;;;;5037124;28;20028;-72
2022/03/30 10:24:17;;;;;;;15.80;9.77;;;;;;;;;;5038417;28;20531;-72
2022/03/30 10:27:09;;;;;;;17.50;10.63;;;;;;;;;;5035036;28;20036;-72
2022/03/30 10:29:36;;;;;;;17.50;10.70;;;;;;;;;;5041644;28;20615;-72
2022/03/30 10:32:33;;;;;;;17.70;11.10;;;;;;;;;;5036930;28;20046;-73
2022/03/30 10:35:00;;;;;;;15.20;10.50;;;;;;;;;;5020117;28;20041;-73
2022/03/30 10:37:26;;;;;;;19.17;10.90;;;;;;;;;;5046849;28;20025;-73
2022/03/30 10:40:16;;;;;;;14.15;10.95;;;;;;;;;;5033106;28;20078;-73
2022/03/30 10:42:49;;;;;;;14.40;10.13;;;;;;;;;;5024834;28;20041;-74
2022/03/30 10:45:24;;;;;;;17.13;10.93;;;;;;;;;;5029784;28;20037;-74
2022/03/30 10:48:09;;;;;;;15.35;10.80;;;;;;;;;;5028850;28;20035;-74
2022/03/30 10:50:41;;;;;;;15.35;11.30;;;;;;;;;;5027437;28;20108;-74
2022/03/30 10:53:26;;;;;;;16.08;11.18;;;;;;;;;;5029185;28;20121;-70
2022/03/30 10:55:52;;;;;;;16.75;11.82;;;;;;;;;;5027492;28;20033;-70
2022/03/30 10:58:20;;;;;;;17.02;11.27;;;;;;;;;;5031257;28;20083;-70
2022/03/30 11:00:46;;;;;;;14.52;10.82;;;;;;;;;;5029985;28;20477;-70
2022/03/30 11:03:20;;;;;;;16.48;12.15;;;;;;;;;;5030479;28;20037;-71
2022/03/30 11:05:47;;;;;;;14.52;11.18;;;;;;;;;;5030890;28;20380;-70
2022/03/30 11:08:46;;;;;;;17.42;11.73;;;;;;;;;;5028024;28;20029;-68
2022/03/30 11:11:45;;;;;;;19.13;11.80;;;;;;;;;;5020357;28;20147;-64
2022/03/30 11:14:33;;;;;;;15.13;11.18;;;;;;;;;;5025729;28;20251;-64
2022/03/30 11:17:03;;;;;;;15.48;11.27;;;;;;;;;;5021340;28;20382;-64
2022/03/30 11:19:48;;;;;;;16.15;11.55;;;;;;;;;;5048017;28;20052;-63
2022/03/30 11:22:15;;;;;;;14.52;10.50;;;;;;;;;;5061782;28;20512;-64
2022/03/30 11:24:45;;;;;;;16.45;10.63;;;;;;;;;;5042266;28;20421;-64
2022/03/30 11:27:11;;;;;;;13.18;9.48;;;;;;;;;;5041630;28;20028;-64
2022/03/30 11:29:53;;;;;;;16.75;11.32;;;;;;;;;;5042518;28;20035;-64
2022/03/30 11:32:19;;;;;;;16.40;11.95;;;;;;;;;;5041549;28;20059;-64
2022/03/30 11:34:48;;;;;;;17.13;11.65;;;;;;;;;;5043468;28;20401;-64
2022/03/30 11:37:14;;;;;;;16.52;12.73;;;;;;;;;;5049763;28;20029;-64
2022/03/30 11:39:41;;;;;;;17.60;11.13;;;;;;;;;;5042260;28;20040;-63
2022/03/30 11:42:07;;;;;;;15.32;11.65;;;;;;;;;;5042699;28;20025;-64
2022/03/30 11:47:22;;;;;;;16.27;11.07;;;;;;;;;;5045937;28;20163;-63
2022/03/30 11:49:55;;;;;;;16.88;11.85;;;;;;;;;;5044766;28;20030;-67
2022/03/30 11:52:22;;;;;;;14.55;12.35;;;;;;;;;;5043292;28;20025;-64
2022/03/30 11:54:48;;;;;;;14.55;10.95;;;;;;;;;;5043043;28;20035;-64
2022/03/30 11:57:15;;;;;;;14.27;11.27;;;;;;;;;;5037486;28;20416;-66
2022/03/30 11:59:41;;;;;;;15.05;11.38;;;;;;;;;;5032636;28;20033;-64
2022/03/30 12:02:08;;;;;;;16.58;11.82;;;;;;;;;;5038878;28;20025;-64
2022/03/30 12:04:34;;;;;;;14.30;11.77;;;;;;;;;;5032930;28;20021;-64
2022/03/30 12:07:00;;;;;;;16.63;11.65;;;;;;;;;;5049506;28;20024;-65
2022/03/30 12:09:26;;;;;;;14.50;11.90;;;;;;;;;;5045726;28;20380;-65
2022/03/30 12:11:52;;;;;;;16.02;11.95;;;;;;;;;;5045453;28;20032;-65
2022/03/30 12:14:25;;;;;;;13.55;11.13;;;;;;;;;;5044161;28;20031;-65
2022/03/30 12:16:51;;;;;;;14.25;11.00;;;;;;;;;;5014365;28;20025;-64
2022/03/30 12:19:19;;;;;;;15.93;11.55;;;;;;;;;;5053245;28;20062;-64
2022/03/30 12:21:45;;;;;;;14.57;11.23;;;;;;;;;;5047662;28;20366;-65
2022/03/30 12:24:11;;;;;;;14.25;11.20;;;;;;;;;;5043113;28;20032;-64
2022/03/30 12:26:37;;;;;;;17.17;11.45;;;;;;;;;;5046088;28;20017;-64
2022/03/30 12:29:08;;;;;;;15.77;11.50;;;;;;;;;;5045459;28;20048;-64
2022/03/30 12:31:41;;;;;;;14.02;10.55;;;;;;;;;;5049721;28;20390;-64
2022/03/30 12:34:11;;;;;;;17.80;11.70;;;;;;;;;;5050590;28;20214;-64
2022/03/30 12:36:41;;;;;;;15.98;11.27;;;;;;;;;;5042640;28;20021;-64
2022/03/30 12:39:21;;;;;;;14.73;11.43;;;;;;;;;;5045043;28;20037;-64
2022/03/30 12:41:59;;;;;;;14.85;10.98;;;;;;;;;;5045277;28;20025;-64
2022/03/30 12:44:29;;;;;;;16.67;11.45;;;;;;;;;;5044573;28;20349;-64
2022/03/30 12:46:58;;;;;;;16.40;11.52;;;;;;;;;;5043133;28;20377;-65
2022/03/30 12:49:34;;;;;;;16.35;13.05;;;;;;;;;;5050068;28;20021;-64
2022/03/30 12:52:06;;;;;;;18.42;12.88;;;;;;;;;;5048909;28;20031;-64
2022/03/30 12:54:32;;;;;;;18.35;10.60;;;;;;;;;;5044356;28;20100;-64
2022/03/30 12:56:58;;;;;;;16.30;12.63;;;;;;;;;;5044396;28;20044;-64
2022/03/30 12:59:25;;;;;;;17.08;12.98;;;;;;;;;;5036124;28;20029;-64
2022/03/30 13:01:51;;;;;;;17.70;12.80;;;;;;;;;;5043804;28;20083;-64
2022/03/30 13:04:17;;;;;;;15.40;12.75;;;;;;;;;;5052218;28;20380;-64
2022/03/30 13:07:03;;;;;;;18.10;11.65;;;;;;;;;;5043703;28;20021;-65
2022/03/30 13:09:29;;;;;;;16.05;10.98;;;;;;;;;;5044679;28;20082;-64
2022/03/30 13:11:57;;;;;;;16.45;10.65;;;;;;;;;;5043248;28;20132;-64
2022/03/30 13:14:23;;;;;;;16.58;11.63;;;;;;;;;;5044253;28;20036;-64
2022/03/30 13:17:06;;;;;;;16.55;12.07;;;;;;;;;;5043474;28;20025;-65
2022/03/30 13:19:32;;;;;;;16.30;11.63;;;;;;;;;;5048527;28;20040;-64
2022/03/30 13:21:59;;;;;;;16.52;10.98;;;;;;;;;;5047744;28;20021;-64
2022/03/30 13:24:26;;;;;;;17.02;11.73;;;;;;;;;;5044133;28;20049;-64
2022/03/30 13:26:53;;;;;;;16.20;11.10;;;;;;;;;;5044054;28;20029;-64
2022/03/30 13:29:19;;;;;;;14.63;11.13;;;;;;;;;;5045302;28;20025;-64
2022/03/30 13:31:46;;;;;;;14.50;10.43;;;;;;;;;;5046407;28;20057;-64
2022/03/30 13:34:13;;;;;;;17.98;11.73;;;;;;;;;;5051088;28;20077;-64
2022/03/30 13:36:39;;;;;;;15.85;11.80;;;;;;;;;;5043595;28;20040;-64
2022/03/30 13:39:07;;;;;;;17.77;12.25;;;;;;;;;;5045344;28;20152;-64
2022/03/30 13:41:33;;;;;;;18.63;12.27;;;;;;;;;;5043449;28;20523;-64
2022/03/30 13:43:59;;;;;;;15.25;11.98;;;;;;;;;;5044003;28;20033;-64
2022/03/30 13:46:25;;;;;;;16.63;11.80;;;;;;;;;;5049834;28;20028;-64
2022/03/30 13:48:51;;;;;;;17.15;11.32;;;;;;;;;;5050021;28;20029;-64
2022/03/30 13:51:17;;;;;;;18.45;13.30;;;;;;;;;;5047248;28;20378;-64
2022/03/30 13:53:43;;;;;;;17.85;12.95;;;;;;;;;;5035645;28;20024;-64
2022/03/30 13:56:10;;;;;;;16.25;11.65;;;;;;;;;;5044473;28;20033;-64
2022/03/30 13:58:36;;;;;;;17.50;12.23;;;;;;;;;;5038840;28;20029;-64
2022/03/30 14:01:03;;;;;;;18.25;11.95;;;;;;;;;;5047852;28;20495;-64
2022/03/30 14:03:30;;;;;;;16.90;12.10;;;;;;;;;;5043547;28;20033;-64
2022/03/30 14:05:57;;;;;;;15.65;12.32;;;;;;;;;;5043468;28;20431;-64
2022/03/30 14:08:23;;;;;;;18.92;12.35;;;;;;;;;;5043611;28;20568;-65
2022/03/30 14:10:50;;;;;;;17.65;12.30;;;;;;;;;;5042890;28;20083;-64
2022/03/30 14:13:17;;;;;;;16.03;11.30;;;;;;;;;;5051469;28;20065;-64
2022/03/30 14:15:43;;;;;;;15.63;11.70;;;;;;;;;;5042578;28;20397;-64
2022/03/30 14:18:09;;;;;;;15.75;11.93;;;;;;;;;;5043470;28;20052;-64
2022/03/30 14:20:39;;;;;;;18.55;13.45;;;;;;;;;;5043159;28;20021;-65
2022/03/30 14:23:05;;;;;;;17.77;12.07;;;;;;;;;;5042976;28;20021;-65
2022/03/30 14:25:35;;;;;;;14.25;10.32;;;;;;;;;;5047795;28;20051;-64
2022/03/30 14:28:01;;;;;;;16.25;11.75;;;;;;;;;;5047355;28;20480;-65
2022/03/30 14:30:28;;;;;;;16.70;13.07;;;;;;;;;;5042557;28;20476;-64
2022/03/30 14:32:54;;;;;;;17.98;12.60;;;;;;;;;;5042635;28;20488;-64